KCGZ/CGZ METAR and TAF weather

Enter ICAO airport designator
Station Type Date Time Source
KCGZ METAR 2020/10/20 15:56 UTC NOAA

KCGZ 201556Z AUTO 11006KT 10SM CLR 23/M01 A2991 RMK AO2 SLP116 T02281006


Station Type Date Time Source
KCGZ Decoded METAR 2020/10/20 15:56 UTC NOAA

Casa Grande, Casa Grande Municipal Airport, AZ, United States (KCGZ) 32-57N 111-46W
Oct 20, 2020 - 11:56 AM EDT / 2020.10.20 1556 UTC
Wind: from the ESE (110 degrees) at 7 MPH (6 KT):0
Visibility: 10 mile(s):0
Sky conditions: clear
Temperature: 73.0 F (22.8 C)
Dew Point: 30.9 F (-0.6 C)
Relative Humidity: 21%
Pressure (altimeter): 29.91 in. Hg (1012 hPa)
ob: KCGZ 201556Z AUTO 11006KT 10SM CLR 23/M01 A2991 RMK AO2 SLP116 T02281006
cycle: 16

Station Type Date Time Source
KCGZ TAF UTC NOAA

Error!

Example: see airport list